sensor_id;sensor_type;location;lat;lon;timestamp;temperature;humidity
21033;DHT22;10675;47.976;7.824;2022-08-25T00:01:53;21.90;83.80
21033;DHT22;10675;47.976;7.824;2022-08-25T00:04:20;21.80;82.90
21033;DHT22;10675;47.976;7.824;2022-08-25T00:06:46;21.70;83.80
21033;DHT22;10675;47.976;7.824;2022-08-25T00:09:16;21.70;84.20
21033;DHT22;10675;47.976;7.824;2022-08-25T00:11:42;21.70;84.20
21033;DHT22;10675;47.976;7.824;2022-08-25T00:14:15;21.60;84.30
21033;DHT22;10675;47.976;7.824;2022-08-25T00:16:41;21.60;85.00
21033;DHT22;10675;47.976;7.824;2022-08-25T00:19:11;21.50;84.90
21033;DHT22;10675;47.976;7.824;2022-08-25T00:21:37;21.40;85.60
21033;DHT22;10675;47.976;7.824;2022-08-25T00:24:04;21.30;86.10
21033;DHT22;10675;47.976;7.824;2022-08-25T00:26:30;21.20;87.00
21033;DHT22;10675;47.976;7.824;2022-08-25T00:28:56;21.20;87.40
21033;DHT22;10675;47.976;7.824;2022-08-25T00:31:22;21.20;87.70
21033;DHT22;10675;47.976;7.824;2022-08-25T00:33:50;21.10;88.20
21033;DHT22;10675;47.976;7.824;2022-08-25T00:36:17;21.10;88.50
21033;DHT22;10675;47.976;7.824;2022-08-25T00:38:44;21.10;88.80
21033;DHT22;10675;47.976;7.824;2022-08-25T00:41:13;21.00;90.00
21033;DHT22;10675;47.976;7.824;2022-08-25T00:43:57;20.90;90.10
21033;DHT22;10675;47.976;7.824;2022-08-25T00:46:28;20.90;90.20
21033;DHT22;10675;47.976;7.824;2022-08-25T00:49:01;20.90;90.40
21033;DHT22;10675;47.976;7.824;2022-08-25T00:51:34;20.80;90.70
21033;DHT22;10675;47.976;7.824;2022-08-25T00:54:02;20.70;90.80
21033;DHT22;10675;47.976;7.824;2022-08-25T00:56:29;20.70;91.20
21033;DHT22;10675;47.976;7.824;2022-08-25T00:58:56;20.60;92.20
21033;DHT22;10675;47.976;7.824;2022-08-25T01:01:22;20.50;92.10
21033;DHT22;10675;47.976;7.824;2022-08-25T01:03:48;20.50;92.40
21033;DHT22;10675;47.976;7.824;2022-08-25T01:06:13;20.60;92.60
21033;DHT22;10675;47.976;7.824;2022-08-25T01:08:40;20.50;92.40
21033;DHT22;10675;47.976;7.824;2022-08-25T01:11:08;20.40;92.50
21033;DHT22;10675;47.976;7.824;2022-08-25T01:16:03;20.40;92.70
21033;DHT22;10675;47.976;7.824;2022-08-25T01:18:45;20.40;93.40
21033;DHT22;10675;47.976;7.824;2022-08-25T01:21:11;20.30;93.60
21033;DHT22;10675;47.976;7.824;2022-08-25T01:23:38;20.20;93.90
21033;DHT22;10675;47.976;7.824;2022-08-25T01:26:14;20.30;94.20
21033;DHT22;10675;47.976;7.824;2022-08-25T01:28:42;20.30;94.20
21033;DHT22;10675;47.976;7.824;2022-08-25T01:31:28;20.20;94.00
21033;DHT22;10675;47.976;7.824;2022-08-25T01:33:56;20.30;94.20
21033;DHT22;10675;47.976;7.824;2022-08-25T01:36:23;20.30;93.90
21033;DHT22;10675;47.976;7.824;2022-08-25T01:38:49;20.20;93.90
21033;DHT22;10675;47.976;7.824;2022-08-25T01:41:40;20.20;94.00
21033;DHT22;10675;47.976;7.824;2022-08-25T01:44:09;20.20;94.20
21033;DHT22;10675;47.976;7.824;2022-08-25T01:46:34;20.20;94.90
21033;DHT22;10675;47.976;7.824;2022-08-25T01:49:01;20.10;95.00
21033;DHT22;10675;47.976;7.824;2022-08-25T01:51:29;20.10;95.00
21033;DHT22;10675;47.976;7.824;2022-08-25T01:53:57;20.10;95.20
21033;DHT22;10675;47.976;7.824;2022-08-25T01:56:23;20.10;95.30
21033;DHT22;10675;47.976;7.824;2022-08-25T01:58:48;20.00;95.90
21033;DHT22;10675;47.976;7.824;2022-08-25T02:01:21;19.90;96.10
21033;DHT22;10675;47.976;7.824;2022-08-25T02:03:50;19.80;96.00
21033;DHT22;10675;47.976;7.824;2022-08-25T02:06:31;19.80;96.30
21033;DHT22;10675;47.976;7.824;2022-08-25T02:09:05;19.80;96.40
21033;DHT22;10675;47.976;7.824;2022-08-25T02:11:32;19.80;96.50
21033;DHT22;10675;47.976;7.824;2022-08-25T02:13:59;19.80;96.40
21033;DHT22;10675;47.976;7.824;2022-08-25T02:16:28;19.80;96.60
21033;DHT22;10675;47.976;7.824;2022-08-25T02:18:55;19.90;96.60
21033;DHT22;10675;47.976;7.824;2022-08-25T02:21:21;19.80;96.80
21033;DHT22;10675;47.976;7.824;2022-08-25T02:23:47;19.70;96.90
21033;DHT22;10675;47.976;7.824;2022-08-25T02:26:13;19.70;97.20
21033;DHT22;10675;47.976;7.824;2022-08-25T02:28:41;19.70;97.50
21033;DHT22;10675;47.976;7.824;2022-08-25T02:31:07;19.70;97.10
21033;DHT22;10675;47.976;7.824;2022-08-25T02:36:02;19.80;97.50
21033;DHT22;10675;47.976;7.824;2022-08-25T02:38:29;19.80;97.20
21033;DHT22;10675;47.976;7.824;2022-08-25T02:40:56;19.80;97.40
21033;DHT22;10675;47.976;7.824;2022-08-25T02:43:23;19.80;97.50
21033;DHT22;10675;47.976;7.824;2022-08-25T02:45:50;19.80;97.50
21033;DHT22;10675;47.976;7.824;2022-08-25T02:48:16;19.80;97.20
21033;DHT22;10675;47.976;7.824;2022-08-25T02:50:49;19.80;97.40
21033;DHT22;10675;47.976;7.824;2022-08-25T02:53:17;19.70;97.40
21033;DHT22;10675;47.976;7.824;2022-08-25T02:55:42;19.70;97.20
21033;DHT22;10675;47.976;7.824;2022-08-25T02:58:08;19.70;98.50
21033;DHT22;10675;47.976;7.824;2022-08-25T03:00:35;19.70;98.30
21033;DHT22;10675;47.976;7.824;2022-08-25T03:03:00;19.70;97.70
21033;DHT22;10675;47.976;7.824;2022-08-25T03:05:26;19.70;97.50
21033;DHT22;10675;47.976;7.824;2022-08-25T03:07:51;19.70;97.40
21033;DHT22;10675;47.976;7.824;2022-08-25T03:10:18;19.70;97.20
21033;DHT22;10675;47.976;7.824;2022-08-25T03:12:45;19.60;97.70
21033;DHT22;10675;47.976;7.824;2022-08-25T03:15:13;19.60;98.10
21033;DHT22;10675;47.976;7.824;2022-08-25T03:17:41;19.50;98.80
21033;DHT22;10675;47.976;7.824;2022-08-25T03:20:07;19.30;99.70
21033;DHT22;10675;47.976;7.824;2022-08-25T03:22:33;19.00;99.90
21033;DHT22;10675;47.976;7.824;2022-08-25T03:24:59;18.80;99.90
21033;DHT22;10675;47.976;7.824;2022-08-25T03:28:03;18.80;99.90
21033;DHT22;10675;47.976;7.824;2022-08-25T03:30:29;18.70;99.90
21033;DHT22;10675;47.976;7.824;2022-08-25T03:32:55;18.80;99.90
21033;DHT22;10675;47.976;7.824;2022-08-25T03:35:21;18.80;99.90
21033;DHT22;10675;47.976;7.824;2022-08-25T03:37:46;18.70;99.90
21033;DHT22;10675;47.976;7.824;2022-08-25T03:40:14;18.60;99.90
21033;DHT22;10675;47.976;7.824;2022-08-25T03:42:42;18.50;99.90
21033;DHT22;10675;47.976;7.824;2022-08-25T03:45:08;18.50;99.90
21033;DHT22;10675;47.976;7.824;2022-08-25T03:47:39;18.60;99.90
21033;DHT22;10675;47.976;7.824;2022-08-25T03:50:07;18.50;99.90
21033;DHT22;10675;47.976;7.824;2022-08-25T03:52:33;18.60;99.90
21033;DHT22;10675;47.976;7.824;2022-08-25T03:54:58;18.50;99.90
21033;DHT22;10675;47.976;7.824;2022-08-25T03:57:25;18.50;99.90
21033;DHT22;10675;47.976;7.824;2022-08-25T03:59:50;18.50;99.90
21033;DHT22;10675;47.976;7.824;2022-08-25T04:02:17;18.80;99.90
21033;DHT22;10675;47.976;7.824;2022-08-25T04:04:42;18.50;99.90
21033;DHT22;10675;47.976;7.824;2022-08-25T04:07:08;18.50;99.90
21033;DHT22;10675;47.976;7.824;2022-08-25T04:09:34;18.40;99.90
21033;DHT22;10675;47.976;7.824;2022-08-25T04:12:00;18.40;99.90
21033;DHT22;10675;47.976;7.824;2022-08-25T04:14:25;18.40;99.90
21033;DHT22;10675;47.976;7.824;2022-08-25T04:16:51;18.40;99.90
21033;DHT22;10675;47.976;7.824;2022-08-25T04:19:17;18.40;99.90
21033;DHT22;10675;47.976;7.824;2022-08-25T04:21:43;18.40;99.90
21033;DHT22;10675;47.976;7.824;2022-08-25T04:24:10;18.40;99.90
21033;DHT22;10675;47.976;7.824;2022-08-25T04:26:43;18.30;99.90
21033;DHT22;10675;47.976;7.824;2022-08-25T04:29:12;18.20;99.90
21033;DHT22;10675;47.976;7.824;2022-08-25T04:31:40;18.20;99.90
21033;DHT22;10675;47.976;7.824;2022-08-25T04:34:06;18.20;99.90
21033;DHT22;10675;47.976;7.824;2022-08-25T04:36:33;18.20;99.90
21033;DHT22;10675;47.976;7.824;2022-08-25T04:38:59;18.30;99.90
21033;DHT22;10675;47.976;7.824;2022-08-25T04:41:25;18.30;99.90
21033;DHT22;10675;47.976;7.824;2022-08-25T04:43:51;18.20;99.90
21033;DHT22;10675;47.976;7.824;2022-08-25T04:46:21;18.10;99.90
21033;DHT22;10675;47.976;7.824;2022-08-25T04:48:48;18.00;99.90
21033;DHT22;10675;47.976;7.824;2022-08-25T04:51:16;18.00;99.90
21033;DHT22;10675;47.976;7.824;2022-08-25T04:53:42;18.00;99.90
21033;DHT22;10675;47.976;7.824;2022-08-25T04:56:10;18.00;99.90
21033;DHT22;10675;47.976;7.824;2022-08-25T04:58:36;18.00;99.90
21033;DHT22;10675;47.976;7.824;2022-08-25T05:01:07;18.00;99.90
21033;DHT22;10675;47.976;7.824;2022-08-25T05:03:34;17.90;99.90
21033;DHT22;10675;47.976;7.824;2022-08-25T05:06:00;17.90;99.90
21033;DHT22;10675;47.976;7.824;2022-08-25T05:08:25;17.90;99.90
21033;DHT22;10675;47.976;7.824;2022-08-25T05:10:51;17.90;99.90
21033;DHT22;10675;47.976;7.824;2022-08-25T05:13:19;17.80;99.90
21033;DHT22;10675;47.976;7.824;2022-08-25T05:15:54;17.90;99.90
21033;DHT22;10675;47.976;7.824;2022-08-25T05:18:21;17.90;99.90
21033;DHT22;10675;47.976;7.824;2022-08-25T05:20:48;18.00;99.90
21033;DHT22;10675;47.976;7.824;2022-08-25T05:23:13;18.00;99.90
21033;DHT22;10675;47.976;7.824;2022-08-25T05:25:40;18.10;99.90
21033;DHT22;10675;47.976;7.824;2022-08-25T05:28:07;18.10;99.90
21033;DHT22;10675;47.976;7.824;2022-08-25T05:30:33;18.20;99.90
21033;DHT22;10675;47.976;7.824;2022-08-25T05:32:58;18.30;99.90
21033;DHT22;10675;47.976;7.824;2022-08-25T05:35:24;18.50;99.90
21033;DHT22;10675;47.976;7.824;2022-08-25T05:37:50;18.60;99.90
21033;DHT22;10675;47.976;7.824;2022-08-25T05:40:15;18.60;99.90
21033;DHT22;10675;47.976;7.824;2022-08-25T05:42:41;18.70;99.90
21033;DHT22;10675;47.976;7.824;2022-08-25T05:45:07;18.80;99.90
21033;DHT22;10675;47.976;7.824;2022-08-25T05:47:33;18.70;99.90
21033;DHT22;10675;47.976;7.824;2022-08-25T05:49:58;18.80;99.90
21033;DHT22;10675;47.976;7.824;2022-08-25T05:52:26;18.80;99.90
21033;DHT22;10675;47.976;7.824;2022-08-25T05:54:52;18.90;99.90
21033;DHT22;10675;47.976;7.824;2022-08-25T05:57:17;19.00;99.90
21033;DHT22;10675;47.976;7.824;2022-08-25T05:59:43;19.00;99.90
21033;DHT22;10675;47.976;7.824;2022-08-25T06:02:08;19.20;99.90
21033;DHT22;10675;47.976;7.824;2022-08-25T06:04:52;19.30;99.90
21033;DHT22;10675;47.976;7.824;2022-08-25T06:07:18;19.50;99.90
21033;DHT22;10675;47.976;7.824;2022-08-25T06:09:43;19.70;99.90
21033;DHT22;10675;47.976;7.824;2022-08-25T06:12:10;19.80;99.90
21033;DHT22;10675;47.976;7.824;2022-08-25T06:14:36;19.90;99.90
21033;DHT22;10675;47.976;7.824;2022-08-25T06:17:01;20.10;99.90
21033;DHT22;10675;47.976;7.824;2022-08-25T06:19:27;20.20;99.90
21033;DHT22;10675;47.976;7.824;2022-08-25T06:21:54;20.40;99.90
21033;DHT22;10675;47.976;7.824;2022-08-25T06:24:20;20.60;99.90
21033;DHT22;10675;47.976;7.824;2022-08-25T06:26:46;20.70;99.90
21033;DHT22;10675;47.976;7.824;2022-08-25T06:29:12;20.70;99.90
21033;DHT22;10675;47.976;7.824;2022-08-25T06:31:41;20.90;99.90
21033;DHT22;10675;47.976;7.824;2022-08-25T06:34:07;21.20;99.90
21033;DHT22;10675;47.976;7.824;2022-08-25T06:36:33;21.20;99.50
21033;DHT22;10675;47.976;7.824;2022-08-25T06:38:59;21.30;99.60
21033;DHT22;10675;47.976;7.824;2022-08-25T06:41:24;21.30;99.90
21033;DHT22;10675;47.976;7.824;2022-08-25T06:43:50;21.40;99.70
21033;DHT22;10675;47.976;7.824;2022-08-25T06:46:19;21.30;98.60
21033;DHT22;10675;47.976;7.824;2022-08-25T06:48:46;21.10;98.00
21033;DHT22;10675;47.976;7.824;2022-08-25T06:51:13;21.30;97.90
21033;DHT22;10675;47.976;7.824;2022-08-25T06:53:40;21.30;97.50
21033;DHT22;10675;47.976;7.824;2022-08-25T06:56:07;21.50;97.50
21033;DHT22;10675;47.976;7.824;2022-08-25T06:58:33;21.70;97.10
21033;DHT22;10675;47.976;7.824;2022-08-25T07:01:11;21.90;96.90
21033;DHT22;10675;47.976;7.824;2022-08-25T07:03:37;22.00;96.10
21033;DHT22;10675;47.976;7.824;2022-08-25T07:06:03;21.90;96.10
21033;DHT22;10675;47.976;7.824;2022-08-25T07:08:29;21.90;95.80
21033;DHT22;10675;47.976;7.824;2022-08-25T07:10:56;22.10;95.90
21033;DHT22;10675;47.976;7.824;2022-08-25T07:13:21;22.10;95.50
21033;DHT22;10675;47.976;7.824;2022-08-25T07:15:53;22.30;95.20
21033;DHT22;10675;47.976;7.824;2022-08-25T07:18:19;22.40;93.80
21033;DHT22;10675;47.976;7.824;2022-08-25T07:20:45;22.50;93.40
21033;DHT22;10675;47.976;7.824;2022-08-25T07:23:10;22.70;92.60
21033;DHT22;10675;47.976;7.824;2022-08-25T07:25:36;22.70;91.60
21033;DHT22;10675;47.976;7.824;2022-08-25T07:28:02;22.80;91.50
21033;DHT22;10675;47.976;7.824;2022-08-25T07:30:28;23.20;90.70
21033;DHT22;10675;47.976;7.824;2022-08-25T07:32:54;23.10;90.40
21033;DHT22;10675;47.976;7.824;2022-08-25T07:35:19;23.10;89.90
21033;DHT22;10675;47.976;7.824;2022-08-25T07:37:50;23.30;89.20
21033;DHT22;10675;47.976;7.824;2022-08-25T07:40:34;23.20;88.30
21033;DHT22;10675;47.976;7.824;2022-08-25T07:43:02;23.40;88.70
21033;DHT22;10675;47.976;7.824;2022-08-25T07:45:31;23.50;87.50
21033;DHT22;10675;47.976;7.824;2022-08-25T07:48:08;23.30;86.90
21033;DHT22;10675;47.976;7.824;2022-08-25T07:50:36;23.70;87.00
21033;DHT22;10675;47.976;7.824;2022-08-25T07:53:07;23.90;86.90
21033;DHT22;10675;47.976;7.824;2022-08-25T07:55:33;23.90;86.50
21033;DHT22;10675;47.976;7.824;2022-08-25T07:58:02;23.90;87.20
21033;DHT22;10675;47.976;7.824;2022-08-25T08:00:28;24.10;85.70
21033;DHT22;10675;47.976;7.824;2022-08-25T08:02:59;24.10;85.00
21033;DHT22;10675;47.976;7.824;2022-08-25T08:05:26;24.20;84.50
21033;DHT22;10675;47.976;7.824;2022-08-25T08:07:53;24.40;84.40
21033;DHT22;10675;47.976;7.824;2022-08-25T08:10:19;24.40;83.70
21033;DHT22;10675;47.976;7.824;2022-08-25T08:12:45;24.50;83.40
21033;DHT22;10675;47.976;7.824;2022-08-25T08:15:11;24.40;84.10
21033;DHT22;10675;47.976;7.824;2022-08-25T08:17:38;24.70;83.90
21033;DHT22;10675;47.976;7.824;2022-08-25T08:20:05;24.60;83.50
21033;DHT22;10675;47.976;7.824;2022-08-25T08:22:34;24.70;83.60
21033;DHT22;10675;47.976;7.824;2022-08-25T08:25:00;25.10;81.50
21033;DHT22;10675;47.976;7.824;2022-08-25T08:27:26;25.10;81.00
21033;DHT22;10675;47.976;7.824;2022-08-25T08:29:51;25.10;81.80
21033;DHT22;10675;47.976;7.824;2022-08-25T08:32:18;25.40;80.90
21033;DHT22;10675;47.976;7.824;2022-08-25T08:34:44;25.50;80.40
21033;DHT22;10675;47.976;7.824;2022-08-25T08:37:11;25.60;80.20
21033;DHT22;10675;47.976;7.824;2022-08-25T08:39:37;25.60;79.20
21033;DHT22;10675;47.976;7.824;2022-08-25T08:49:53;26.00;77.40
21033;DHT22;10675;47.976;7.824;2022-08-25T08:52:28;26.10;77.10
21033;DHT22;10675;47.976;7.824;2022-08-25T08:55:02;26.10;77.40
21033;DHT22;10675;47.976;7.824;2022-08-25T08:57:31;26.00;76.70
21033;DHT22;10675;47.976;7.824;2022-08-25T09:00:00;26.20;76.80
21033;DHT22;10675;47.976;7.824;2022-08-25T09:05:00;26.40;74.90
21033;DHT22;10675;47.976;7.824;2022-08-25T09:07:48;26.40;75.00
21033;DHT22;10675;47.976;7.824;2022-08-25T09:10:16;26.40;75.20
21033;DHT22;10675;47.976;7.824;2022-08-25T09:12:52;26.70;74.20
21033;DHT22;10675;47.976;7.824;2022-08-25T09:15:49;26.50;73.70
21033;DHT22;10675;47.976;7.824;2022-08-25T09:18:45;26.40;73.80
21033;DHT22;10675;47.976;7.824;2022-08-25T09:26:44;26.50;73.00
21033;DHT22;10675;47.976;7.824;2022-08-25T09:29:18;26.80;71.80
21033;DHT22;10675;47.976;7.824;2022-08-25T09:31:47;27.00;71.50
21033;DHT22;10675;47.976;7.824;2022-08-25T09:34:21;26.80;71.50
21033;DHT22;10675;47.976;7.824;2022-08-25T09:36:48;27.00;71.10
21033;DHT22;10675;47.976;7.824;2022-08-25T09:39:17;27.20;70.50
21033;DHT22;10675;47.976;7.824;2022-08-25T09:41:53;27.30;70.70
21033;DHT22;10675;47.976;7.824;2022-08-25T09:44:29;27.30;70.20
21033;DHT22;10675;47.976;7.824;2022-08-25T09:49:45;27.50;69.30
21033;DHT22;10675;47.976;7.824;2022-08-25T09:54:54;27.40;69.30
21033;DHT22;10675;47.976;7.824;2022-08-25T09:57:35;27.30;68.90
21033;DHT22;10675;47.976;7.824;2022-08-25T10:03:07;27.70;69.60
21033;DHT22;10675;47.976;7.824;2022-08-25T10:05:56;27.80;68.00
21033;DHT22;10675;47.976;7.824;2022-08-25T10:08:50;27.80;68.70
21033;DHT22;10675;47.976;7.824;2022-08-25T10:11:42;28.00;67.20
21033;DHT22;10675;47.976;7.824;2022-08-25T10:14:20;28.00;66.80
21033;DHT22;10675;47.976;7.824;2022-08-25T10:16:47;28.10;67.70
21033;DHT22;10675;47.976;7.824;2022-08-25T10:24:27;28.30;66.50
21033;DHT22;10675;47.976;7.824;2022-08-25T10:32:51;28.40;65.40
21033;DHT22;10675;47.976;7.824;2022-08-25T10:35:28;28.30;65.60
21033;DHT22;10675;47.976;7.824;2022-08-25T10:40:33;28.40;64.80
21033;DHT22;10675;47.976;7.824;2022-08-25T10:43:02;28.50;64.80
21033;DHT22;10675;47.976;7.824;2022-08-25T10:45:35;28.90;64.30
21033;DHT22;10675;47.976;7.824;2022-08-25T10:51:49;28.90;62.90
21033;DHT22;10675;47.976;7.824;2022-08-25T10:57:16;29.10;59.10
21033;DHT22;10675;47.976;7.824;2022-08-25T11:00:09;29.20;59.80
21033;DHT22;10675;47.976;7.824;2022-08-25T11:02:59;29.10;59.60
21033;DHT22;10675;47.976;7.824;2022-08-25T11:05:30;29.10;59.00
21033;DHT22;10675;47.976;7.824;2022-08-25T11:10:48;29.20;59.30
21033;DHT22;10675;47.976;7.824;2022-08-25T11:13:26;29.10;59.70
21033;DHT22;10675;47.976;7.824;2022-08-25T11:19:06;29.30;58.90
21033;DHT22;10675;47.976;7.824;2022-08-25T11:21:46;29.30;59.80
21033;DHT22;10675;47.976;7.824;2022-08-25T11:24:31;29.50;59.80
21033;DHT22;10675;47.976;7.824;2022-08-25T11:27:04;29.50;59.50
21033;DHT22;10675;47.976;7.824;2022-08-25T11:29:32;29.40;59.30
21033;DHT22;10675;47.976;7.824;2022-08-25T11:32:02;29.60;59.40
21033;DHT22;10675;47.976;7.824;2022-08-25T11:34:34;29.60;59.30
21033;DHT22;10675;47.976;7.824;2022-08-25T11:37:06;29.70;59.00
21033;DHT22;10675;47.976;7.824;2022-08-25T11:40:03;29.70;58.30
21033;DHT22;10675;47.976;7.824;2022-08-25T11:53:35;30.10;57.70
21033;DHT22;10675;47.976;7.824;2022-08-25T11:56:05;29.90;57.40
21033;DHT22;10675;47.976;7.824;2022-08-25T12:01:04;30.20;57.90
21033;DHT22;10675;47.976;7.824;2022-08-25T12:06:19;30.70;56.00
21033;DHT22;10675;47.976;7.824;2022-08-25T12:22:43;30.40;55.90
21033;DHT22;10675;47.976;7.824;2022-08-25T12:24:55;30.50;56.40
21033;DHT22;10675;47.976;7.824;2022-08-25T12:30:44;30.70;54.90
21033;DHT22;10675;47.976;7.824;2022-08-25T12:36:01;30.70;55.60
21033;DHT22;10675;47.976;7.824;2022-08-25T12:38:30;30.70;55.50
21033;DHT22;10675;47.976;7.824;2022-08-25T12:41:03;30.60;55.30
21033;DHT22;10675;47.976;7.824;2022-08-25T12:43:34;30.80;55.80
21033;DHT22;10675;47.976;7.824;2022-08-25T12:51:55;31.10;54.90
21033;DHT22;10675;47.976;7.824;2022-08-25T12:59:53;31.10;54.20
21033;DHT22;10675;47.976;7.824;2022-08-25T13:02:48;31.30;53.70
21033;DHT22;10675;47.976;7.824;2022-08-25T13:10:54;32.10;52.70
21033;DHT22;10675;47.976;7.824;2022-08-25T13:13:36;32.50;52.50
21033;DHT22;10675;47.976;7.824;2022-08-25T13:16:07;32.90;52.10
21033;DHT22;10675;47.976;7.824;2022-08-25T13:18:36;32.90;50.20
21033;DHT22;10675;47.976;7.824;2022-08-25T13:21:22;33.20;49.20
21033;DHT22;10675;47.976;7.824;2022-08-25T13:23:53;33.10;48.00
21033;DHT22;10675;47.976;7.824;2022-08-25T13:26:28;33.40;48.00
21033;DHT22;10675;47.976;7.824;2022-08-25T13:29:01;33.70;46.50
21033;DHT22;10675;47.976;7.824;2022-08-25T13:31:28;34.20;46.20
21033;DHT22;10675;47.976;7.824;2022-08-25T13:34:06;34.30;45.70
21033;DHT22;10675;47.976;7.824;2022-08-25T13:36:44;34.30;45.70
21033;DHT22;10675;47.976;7.824;2022-08-25T13:39:29;34.10;44.30
21033;DHT22;10675;47.976;7.824;2022-08-25T13:41:58;34.40;43.40
21033;DHT22;10675;47.976;7.824;2022-08-25T13:44:27;34.60;43.10
21033;DHT22;10675;47.976;7.824;2022-08-25T13:47:10;34.50;41.80
21033;DHT22;10675;47.976;7.824;2022-08-25T13:49:38;34.40;41.10
21033;DHT22;10675;47.976;7.824;2022-08-25T13:52:04;34.50;40.50
21033;DHT22;10675;47.976;7.824;2022-08-25T13:54:38;34.50;40.60
21033;DHT22;10675;47.976;7.824;2022-08-25T13:57:21;34.50;39.80
21033;DHT22;10675;47.976;7.824;2022-08-25T13:59:51;34.30;39.20
21033;DHT22;10675;47.976;7.824;2022-08-25T14:02:41;34.30;38.70
21033;DHT22;10675;47.976;7.824;2022-08-25T14:05:08;34.30;39.40
21033;DHT22;10675;47.976;7.824;2022-08-25T14:07:35;34.70;38.30
21033;DHT22;10675;47.976;7.824;2022-08-25T14:10:10;34.80;38.10
21033;DHT22;10675;47.976;7.824;2022-08-25T14:13:31;34.10;37.10
21033;DHT22;10675;47.976;7.824;2022-08-25T14:16:14;33.90;37.90
21033;DHT22;10675;47.976;7.824;2022-08-25T14:18:49;33.20;38.90
21033;DHT22;10675;47.976;7.824;2022-08-25T14:21:18;32.80;39.30
21033;DHT22;10675;47.976;7.824;2022-08-25T14:23:44;32.40;39.60
21033;DHT22;10675;47.976;7.824;2022-08-25T14:26:10;32.10;39.20
21033;DHT22;10675;47.976;7.824;2022-08-25T14:28:37;32.10;39.80
21033;DHT22;10675;47.976;7.824;2022-08-25T14:31:12;32.00;39.70
21033;DHT22;10675;47.976;7.824;2022-08-25T14:34:13;31.90;38.60
21033;DHT22;10675;47.976;7.824;2022-08-25T14:36:36;32.00;38.10
21033;DHT22;10675;47.976;7.824;2022-08-25T14:39:02;31.80;38.60
21033;DHT22;10675;47.976;7.824;2022-08-25T14:41:32;31.80;37.70
21033;DHT22;10675;47.976;7.824;2022-08-25T14:44:00;31.60;36.90
21033;DHT22;10675;47.976;7.824;2022-08-25T14:46:27;31.50;37.40
21033;DHT22;10675;47.976;7.824;2022-08-25T14:48:57;31.60;37.00
21033;DHT22;10675;47.976;7.824;2022-08-25T14:51:25;31.50;37.00
21033;DHT22;10675;47.976;7.824;2022-08-25T14:53:53;31.50;35.40
21033;DHT22;10675;47.976;7.824;2022-08-25T14:56:20;31.50;34.70
21033;DHT22;10675;47.976;7.824;2022-08-25T14:58:46;31.50;32.00
21033;DHT22;10675;47.976;7.824;2022-08-25T15:01:13;31.40;31.20
21033;DHT22;10675;47.976;7.824;2022-08-25T15:03:42;31.40;30.30
21033;DHT22;10675;47.976;7.824;2022-08-25T15:06:10;31.60;30.20
21033;DHT22;10675;47.976;7.824;2022-08-25T15:08:37;31.70;31.90
21033;DHT22;10675;47.976;7.824;2022-08-25T15:11:21;31.60;30.00
21033;DHT22;10675;47.976;7.824;2022-08-25T15:13:47;31.50;30.00
21033;DHT22;10675;47.976;7.824;2022-08-25T15:16:16;31.60;30.50
21033;DHT22;10675;47.976;7.824;2022-08-25T15:18:43;31.40;29.70
21033;DHT22;10675;47.976;7.824;2022-08-25T15:21:08;31.60;30.60
21033;DHT22;10675;47.976;7.824;2022-08-25T15:23:34;31.50;29.70
21033;DHT22;10675;47.976;7.824;2022-08-25T15:25:59;31.50;30.00
21033;DHT22;10675;47.976;7.824;2022-08-25T15:28:25;31.50;30.40
21033;DHT22;10675;47.976;7.824;2022-08-25T15:30:51;31.40;30.20
21033;DHT22;10675;47.976;7.824;2022-08-25T15:33:17;31.50;29.70
21033;DHT22;10675;47.976;7.824;2022-08-25T15:35:43;31.50;30.00
21033;DHT22;10675;47.976;7.824;2022-08-25T15:38:09;31.30;32.20
21033;DHT22;10675;47.976;7.824;2022-08-25T15:40:35;31.30;33.10
21033;DHT22;10675;47.976;7.824;2022-08-25T15:43:03;31.30;33.50
21033;DHT22;10675;47.976;7.824;2022-08-25T15:45:29;31.20;32.80
21033;DHT22;10675;47.976;7.824;2022-08-25T15:47:54;31.10;32.60
21033;DHT22;10675;47.976;7.824;2022-08-25T15:50:21;31.10;33.30
21033;DHT22;10675;47.976;7.824;2022-08-25T15:52:47;31.10;33.40
21033;DHT22;10675;47.976;7.824;2022-08-25T15:55:15;31.10;33.60
21033;DHT22;10675;47.976;7.824;2022-08-25T15:57:41;31.10;34.20
21033;DHT22;10675;47.976;7.824;2022-08-25T16:00:07;31.00;34.10
21033;DHT22;10675;47.976;7.824;2022-08-25T16:02:37;31.00;34.30
21033;DHT22;10675;47.976;7.824;2022-08-25T16:05:07;31.00;35.00
21033;DHT22;10675;47.976;7.824;2022-08-25T16:07:33;31.00;34.70
21033;DHT22;10675;47.976;7.824;2022-08-25T16:09:59;30.90;36.10
21033;DHT22;10675;47.976;7.824;2022-08-25T16:12:25;30.80;35.50
21033;DHT22;10675;47.976;7.824;2022-08-25T16:14:51;31.00;35.00
21033;DHT22;10675;47.976;7.824;2022-08-25T16:17:17;31.00;35.40
21033;DHT22;10675;47.976;7.824;2022-08-25T16:19:44;30.90;35.80
21033;DHT22;10675;47.976;7.824;2022-08-25T16:22:10;30.90;34.30
21033;DHT22;10675;47.976;7.824;2022-08-25T16:24:38;30.90;34.00
21033;DHT22;10675;47.976;7.824;2022-08-25T16:27:05;30.90;33.80
21033;DHT22;10675;47.976;7.824;2022-08-25T16:29:33;30.90;34.40
21033;DHT22;10675;47.976;7.824;2022-08-25T16:31:59;30.80;34.90
21033;DHT22;10675;47.976;7.824;2022-08-25T16:34:25;30.90;34.30
21033;DHT22;10675;47.976;7.824;2022-08-25T16:36:52;30.70;35.70
21033;DHT22;10675;47.976;7.824;2022-08-25T16:39:19;30.70;36.90
21033;DHT22;10675;47.976;7.824;2022-08-25T16:41:44;30.70;32.50
21033;DHT22;10675;47.976;7.824;2022-08-25T16:44:10;30.80;33.40
21033;DHT22;10675;47.976;7.824;2022-08-25T16:46:36;30.80;33.70
21033;DHT22;10675;47.976;7.824;2022-08-25T16:49:04;30.70;34.50
21033;DHT22;10675;47.976;7.824;2022-08-25T16:51:30;30.70;35.50
21033;DHT22;10675;47.976;7.824;2022-08-25T16:53:56;30.70;36.50
21033;DHT22;10675;47.976;7.824;2022-08-25T16:56:41;30.60;38.00
21033;DHT22;10675;47.976;7.824;2022-08-25T16:59:08;30.60;38.00
21033;DHT22;10675;47.976;7.824;2022-08-25T17:01:35;30.60;39.10
21033;DHT22;10675;47.976;7.824;2022-08-25T17:04:01;30.50;38.90
21033;DHT22;10675;47.976;7.824;2022-08-25T17:06:31;30.40;39.00
21033;DHT22;10675;47.976;7.824;2022-08-25T17:08:57;30.40;39.10
21033;DHT22;10675;47.976;7.824;2022-08-25T17:11:26;30.30;41.60
21033;DHT22;10675;47.976;7.824;2022-08-25T17:13:54;30.30;41.50
21033;DHT22;10675;47.976;7.824;2022-08-25T17:16:23;30.30;41.10
21033;DHT22;10675;47.976;7.824;2022-08-25T17:18:52;30.20;43.60
21033;DHT22;10675;47.976;7.824;2022-08-25T17:21:19;30.10;42.60
21033;DHT22;10675;47.976;7.824;2022-08-25T17:23:46;30.10;44.20
21033;DHT22;10675;47.976;7.824;2022-08-25T17:26:13;30.00;43.50
21033;DHT22;10675;47.976;7.824;2022-08-25T17:28:39;29.90;44.80
21033;DHT22;10675;47.976;7.824;2022-08-25T17:31:07;29.90;43.90
21033;DHT22;10675;47.976;7.824;2022-08-25T17:33:32;29.80;43.60